sensor_id;sensor_type;location;lat;lon;timestamp;pressure;altitude;pressure_sealevel;temperature;humidity
48555;BME280;34336;48.270;16.716;2022-12-10T00:00:15;76262.66;;;18.16;100.00
48555;BME280;34336;48.270;16.716;2022-12-10T00:02:44;76262.66;;;18.16;100.00
48555;BME280;34336;48.270;16.716;2022-12-10T00:05:10;76260.75;;;18.16;100.00
48555;BME280;34336;48.270;16.716;2022-12-10T00:07:37;76274.22;;;18.16;100.00
48555;BME280;34336;48.270;16.716;2022-12-10T00:10:18;76272.31;;;18.16;100.00
48555;BME280;34336;48.270;16.716;2022-12-10T00:12:45;76287.72;;;18.16;100.00
48555;BME280;34336;48.270;16.716;2022-12-10T00:15:12;76285.78;;;18.16;100.00
48555;BME280;34336;48.270;16.716;2022-12-10T00:17:38;76293.50;;;18.16;100.00
48555;BME280;34336;48.270;16.716;2022-12-10T00:20:05;76295.44;;;18.16;100.00
48555;BME280;34336;48.270;16.716;2022-12-10T00:22:32;76301.22;;;18.16;100.00
48555;BME280;34336;48.270;16.716;2022-12-10T00:24:58;76303.13;;;18.16;100.00
48555;BME280;34336;48.270;16.716;2022-12-10T00:27:25;76291.56;;;18.16;100.00
48555;BME280;34336;48.270;16.716;2022-12-10T00:29:53;76297.34;;;18.16;100.00
48555;BME280;34336;48.270;16.716;2022-12-10T00:32:20;76289.66;;;18.16;100.00
48555;BME280;34336;48.270;16.716;2022-12-10T00:34:47;76301.22;;;18.16;100.00
48555;BME280;34336;48.270;16.716;2022-12-10T00:37:13;76303.13;;;18.16;100.00
48555;BME280;34336;48.270;16.716;2022-12-10T00:39:40;76307.00;;;18.16;100.00
48555;BME280;34336;48.270;16.716;2022-12-10T00:42:06;76308.91;;;18.16;100.00
48555;BME280;34336;48.270;16.716;2022-12-10T00:44:33;76299.28;;;18.16;100.00
48555;BME280;34336;48.270;16.716;2022-12-10T00:47:00;76310.84;;;18.16;100.00
48555;BME280;34336;48.270;16.716;2022-12-10T00:49:27;76316.63;;;18.16;100.00
48555;BME280;34336;48.270;16.716;2022-12-10T00:51:54;76316.63;;;18.16;100.00
48555;BME280;34336;48.270;16.716;2022-12-10T00:54:20;76316.63;;;18.16;100.00
48555;BME280;34336;48.270;16.716;2022-12-10T00:56:47;76320.47;;;18.16;100.00
48555;BME280;34336;48.270;16.716;2022-12-10T00:59:13;76324.34;;;18.16;100.00
48555;BME280;34336;48.270;16.716;2022-12-10T01:01:41;76312.78;;;18.16;100.00
48555;BME280;34336;48.270;16.716;2022-12-10T01:04:10;76318.56;;;18.16;100.00
48555;BME280;34336;48.270;16.716;2022-12-10T01:09:09;76322.41;;;18.16;100.00
48555;BME280;34336;48.270;16.716;2022-12-10T01:11:38;76324.34;;;18.16;100.00
48555;BME280;34336;48.270;16.716;2022-12-10T01:14:06;76333.97;;;18.16;100.00
48555;BME280;34336;48.270;16.716;2022-12-10T01:16:33;76343.59;;;18.16;100.00
48555;BME280;34336;48.270;16.716;2022-12-10T01:19:00;76359.00;;;18.16;100.00
48555;BME280;34336;48.270;16.716;2022-12-10T01:21:27;76366.72;;;18.16;100.00
48555;BME280;34336;48.270;16.716;2022-12-10T01:23:54;76360.94;;;18.16;100.00
48555;BME280;34336;48.270;16.716;2022-12-10T01:26:26;76362.88;;;18.16;100.00
48555;BME280;34336;48.270;16.716;2022-12-10T01:28:54;76357.09;;;18.16;100.00
48555;BME280;34336;48.270;16.716;2022-12-10T01:31:25;76347.47;;;18.16;100.00
48555;BME280;34336;48.270;16.716;2022-12-10T01:33:52;76359.00;;;18.16;100.00
48555;BME280;34336;48.270;16.716;2022-12-10T01:36:19;76359.00;;;18.16;100.00
48555;BME280;34336;48.270;16.716;2022-12-10T01:38:47;76353.25;;;18.16;100.00
48555;BME280;34336;48.270;16.716;2022-12-10T01:41:25;76362.88;;;18.16;100.00
48555;BME280;34336;48.270;16.716;2022-12-10T01:43:53;76353.25;;;18.16;100.00
48555;BME280;34336;48.270;16.716;2022-12-10T01:46:20;76355.16;;;18.16;100.00
48555;BME280;34336;48.270;16.716;2022-12-10T01:48:48;76359.00;;;18.16;100.00
48555;BME280;34336;48.270;16.716;2022-12-10T01:51:16;76355.16;;;18.16;100.00
48555;BME280;34336;48.270;16.716;2022-12-10T01:53:43;76355.16;;;18.16;100.00
48555;BME280;34336;48.270;16.716;2022-12-10T01:56:11;76353.25;;;18.16;100.00
48555;BME280;34336;48.270;16.716;2022-12-10T01:58:38;76355.16;;;18.16;100.00
48555;BME280;34336;48.270;16.716;2022-12-10T02:01:10;76353.25;;;18.16;100.00
48555;BME280;34336;48.270;16.716;2022-12-10T02:03:40;76347.47;;;18.16;100.00
48555;BME280;34336;48.270;16.716;2022-12-10T02:14:22;76337.81;;;18.16;100.00
48555;BME280;34336;48.270;16.716;2022-12-10T02:16:55;76339.75;;;18.16;100.00
48555;BME280;34336;48.270;16.716;2022-12-10T02:19:33;76347.47;;;18.16;100.00
48555;BME280;34336;48.270;16.716;2022-12-10T02:22:01;76355.16;;;18.16;100.00
48555;BME280;34336;48.270;16.716;2022-12-10T02:24:31;76351.31;;;18.16;100.00
48555;BME280;34336;48.270;16.716;2022-12-10T02:27:15;76359.00;;;18.16;100.00
48555;BME280;34336;48.270;16.716;2022-12-10T02:29:44;76355.16;;;18.16;100.00
48555;BME280;34336;48.270;16.716;2022-12-10T02:32:14;76355.16;;;18.16;100.00
48555;BME280;34336;48.270;16.716;2022-12-10T02:34:44;76366.72;;;18.16;100.00
48555;BME280;34336;48.270;16.716;2022-12-10T02:37:20;76362.88;;;18.16;100.00
48555;BME280;34336;48.270;16.716;2022-12-10T02:39:53;76366.72;;;18.16;100.00
48555;BME280;34336;48.270;16.716;2022-12-10T02:42:24;76355.16;;;18.16;100.00
48555;BME280;34336;48.270;16.716;2022-12-10T02:44:53;76349.38;;;18.16;100.00
48555;BME280;34336;48.270;16.716;2022-12-10T02:47:22;76347.47;;;18.16;100.00
48555;BME280;34336;48.270;16.716;2022-12-10T02:49:49;76359.00;;;18.16;100.00
48555;BME280;34336;48.270;16.716;2022-12-10T02:52:19;76357.09;;;18.16;100.00
48555;BME280;34336;48.270;16.716;2022-12-10T02:54:50;76355.16;;;18.16;100.00
48555;BME280;34336;48.270;16.716;2022-12-10T03:02:28;76347.47;;;18.16;100.00
48555;BME280;34336;48.270;16.716;2022-12-10T03:04:59;76351.31;;;18.16;100.00
48555;BME280;34336;48.270;16.716;2022-12-10T03:07:33;76355.16;;;18.16;100.00
48555;BME280;34336;48.270;16.716;2022-12-10T03:10:03;76355.16;;;18.16;100.00
48555;BME280;34336;48.270;16.716;2022-12-10T03:12:33;76359.00;;;18.16;100.00
48555;BME280;34336;48.270;16.716;2022-12-10T03:15:04;76374.44;;;18.16;100.00
48555;BME280;34336;48.270;16.716;2022-12-10T03:17:33;76376.34;;;18.16;100.00
48555;BME280;34336;48.270;16.716;2022-12-10T03:20:00;76362.88;;;18.16;100.00
48555;BME280;34336;48.270;16.716;2022-12-10T03:22:28;76355.16;;;18.16;100.00
48555;BME280;34336;48.270;16.716;2022-12-10T03:24:55;76349.38;;;18.16;100.00
48555;BME280;34336;48.270;16.716;2022-12-10T03:27:24;76347.47;;;18.16;100.00
48555;BME280;34336;48.270;16.716;2022-12-10T03:29:52;76347.47;;;18.16;100.00
48555;BME280;34336;48.270;16.716;2022-12-10T03:32:20;76347.47;;;18.16;100.00
48555;BME280;34336;48.270;16.716;2022-12-10T03:34:48;76343.59;;;18.16;100.00
48555;BME280;34336;48.270;16.716;2022-12-10T03:37:17;76347.47;;;18.16;100.00
48555;BME280;34336;48.270;16.716;2022-12-10T03:39:44;76349.38;;;18.16;100.00
48555;BME280;34336;48.270;16.716;2022-12-10T03:42:10;76355.16;;;18.16;100.00
48555;BME280;34336;48.270;16.716;2022-12-10T03:44:38;76353.25;;;18.16;100.00
48555;BME280;34336;48.270;16.716;2022-12-10T03:47:05;76360.94;;;18.16;100.00
48555;BME280;34336;48.270;16.716;2022-12-10T03:49:32;76362.88;;;18.16;100.00
48555;BME280;34336;48.270;16.716;2022-12-10T03:51:58;76360.94;;;18.16;100.00
48555;BME280;34336;48.270;16.716;2022-12-10T03:54:25;76360.94;;;18.16;100.00
48555;BME280;34336;48.270;16.716;2022-12-10T03:56:51;76360.94;;;18.16;100.00
48555;BME280;34336;48.270;16.716;2022-12-10T03:59:18;76368.66;;;18.16;100.00
48555;BME280;34336;48.270;16.716;2022-12-10T04:01:45;76370.56;;;18.16;100.00
48555;BME280;34336;48.270;16.716;2022-12-10T04:04:12;76370.56;;;18.16;100.00
48555;BME280;34336;48.270;16.716;2022-12-10T04:06:38;76378.28;;;18.16;100.00
48555;BME280;34336;48.270;16.716;2022-12-10T04:09:05;76382.13;;;18.16;100.00
48555;BME280;34336;48.270;16.716;2022-12-10T04:11:32;76387.91;;;18.16;100.00
48555;BME280;34336;48.270;16.716;2022-12-10T04:13:59;76389.84;;;18.16;100.00
48555;BME280;34336;48.270;16.716;2022-12-10T04:16:45;76393.69;;;18.16;100.00
48555;BME280;34336;48.270;16.716;2022-12-10T04:19:12;76389.84;;;18.16;100.00
48555;BME280;34336;48.270;16.716;2022-12-10T04:21:40;76378.28;;;18.16;100.00
48555;BME280;34336;48.270;16.716;2022-12-10T04:24:27;76378.28;;;18.16;100.00
48555;BME280;34336;48.270;16.716;2022-12-10T04:27:13;76386.00;;;18.16;100.00
48555;BME280;34336;48.270;16.716;2022-12-10T04:29:42;76386.00;;;18.16;100.00
48555;BME280;34336;48.270;16.716;2022-12-10T04:32:09;76382.13;;;18.16;100.00
48555;BME280;34336;48.270;16.716;2022-12-10T04:34:36;76389.84;;;18.16;100.00
48555;BME280;34336;48.270;16.716;2022-12-10T04:37:03;76391.78;;;18.16;100.00
48555;BME280;34336;48.270;16.716;2022-12-10T04:39:30;76393.69;;;18.16;100.00
48555;BME280;34336;48.270;16.716;2022-12-10T04:41:57;76397.56;;;18.16;100.00
48555;BME280;34336;48.270;16.716;2022-12-10T04:44:24;76397.56;;;18.16;100.00
48555;BME280;34336;48.270;16.716;2022-12-10T04:46:51;76399.47;;;18.16;100.00
48555;BME280;34336;48.270;16.716;2022-12-10T04:49:17;76387.91;;;18.16;100.00
48555;BME280;34336;48.270;16.716;2022-12-10T04:51:44;76384.06;;;18.16;100.00
48555;BME280;34336;48.270;16.716;2022-12-10T04:54:11;76397.56;;;18.16;100.00
48555;BME280;34336;48.270;16.716;2022-12-10T04:56:38;76401.41;;;18.16;100.00
48555;BME280;34336;48.270;16.716;2022-12-10T04:59:04;76409.13;;;18.16;100.00
48555;BME280;34336;48.270;16.716;2022-12-10T05:01:32;76403.34;;;18.16;100.00
48555;BME280;34336;48.270;16.716;2022-12-10T05:03:59;76409.13;;;18.16;100.00
48555;BME280;34336;48.270;16.716;2022-12-10T05:06:26;76401.41;;;18.16;100.00
48555;BME280;34336;48.270;16.716;2022-12-10T05:08:53;76401.41;;;18.16;100.00
48555;BME280;34336;48.270;16.716;2022-12-10T05:11:21;76401.41;;;18.16;100.00
48555;BME280;34336;48.270;16.716;2022-12-10T05:13:48;76401.41;;;18.16;100.00
48555;BME280;34336;48.270;16.716;2022-12-10T05:16:16;76409.13;;;18.16;100.00
48555;BME280;34336;48.270;16.716;2022-12-10T05:18:42;76414.91;;;18.16;100.00
48555;BME280;34336;48.270;16.716;2022-12-10T05:21:11;76412.97;;;18.16;100.00
48555;BME280;34336;48.270;16.716;2022-12-10T05:23:39;76414.91;;;18.16;100.00
48555;BME280;34336;48.270;16.716;2022-12-10T05:26:07;76420.69;;;18.16;100.00
48555;BME280;34336;48.270;16.716;2022-12-10T05:28:38;76409.13;;;18.16;100.00
48555;BME280;34336;48.270;16.716;2022-12-10T05:31:05;76399.47;;;18.16;100.00
48555;BME280;34336;48.270;16.716;2022-12-10T05:33:31;76399.47;;;18.16;100.00
48555;BME280;34336;48.270;16.716;2022-12-10T05:36:00;76397.56;;;18.16;100.00
48555;BME280;34336;48.270;16.716;2022-12-10T05:38:27;76397.56;;;18.16;100.00
48555;BME280;34336;48.270;16.716;2022-12-10T05:40:54;76401.41;;;18.16;100.00
48555;BME280;34336;48.270;16.716;2022-12-10T05:43:23;76397.56;;;18.16;100.00
48555;BME280;34336;48.270;16.716;2022-12-10T05:45:50;76399.47;;;18.16;100.00
48555;BME280;34336;48.270;16.716;2022-12-10T05:48:17;76403.34;;;18.16;100.00
48555;BME280;34336;48.270;16.716;2022-12-10T05:50:44;76412.97;;;18.16;100.00
48555;BME280;34336;48.270;16.716;2022-12-10T05:53:10;76412.97;;;18.16;100.00
48555;BME280;34336;48.270;16.716;2022-12-10T05:55:40;76426.47;;;18.16;100.00
48555;BME280;34336;48.270;16.716;2022-12-10T05:58:06;76424.53;;;18.16;100.00
48555;BME280;34336;48.270;16.716;2022-12-10T06:00:33;76426.47;;;18.16;100.00
48555;BME280;34336;48.270;16.716;2022-12-10T06:02:59;76420.69;;;18.16;100.00
48555;BME280;34336;48.270;16.716;2022-12-10T06:05:26;76432.25;;;18.16;100.00
48555;BME280;34336;48.270;16.716;2022-12-10T06:07:53;76430.31;;;18.16;100.00
48555;BME280;34336;48.270;16.716;2022-12-10T06:10:19;76434.16;;;18.16;100.00
48555;BME280;34336;48.270;16.716;2022-12-10T06:12:46;76432.25;;;18.16;100.00
48555;BME280;34336;48.270;16.716;2022-12-10T06:15:12;76434.16;;;18.16;100.00
48555;BME280;34336;48.270;16.716;2022-12-10T06:17:39;76436.09;;;18.16;100.00
48555;BME280;34336;48.270;16.716;2022-12-10T06:20:07;76445.72;;;18.16;100.00
48555;BME280;34336;48.270;16.716;2022-12-10T06:22:34;76449.59;;;18.16;100.00
48555;BME280;34336;48.270;16.716;2022-12-10T06:25:01;76459.22;;;18.16;100.00
48555;BME280;34336;48.270;16.716;2022-12-10T06:27:29;76466.94;;;18.16;100.00
48555;BME280;34336;48.270;16.716;2022-12-10T06:29:56;76465.00;;;18.16;100.00
48555;BME280;34336;48.270;16.716;2022-12-10T06:32:23;76466.94;;;18.16;100.00
48555;BME280;34336;48.270;16.716;2022-12-10T06:34:49;76476.56;;;18.16;100.00
48555;BME280;34336;48.270;16.716;2022-12-10T06:37:16;76478.50;;;18.16;100.00
48555;BME280;34336;48.270;16.716;2022-12-10T06:39:42;76488.13;;;18.16;100.00
48555;BME280;34336;48.270;16.716;2022-12-10T06:42:09;76493.91;;;18.16;100.00
48555;BME280;34336;48.270;16.716;2022-12-10T06:44:35;76497.75;;;18.16;100.00
48555;BME280;34336;48.270;16.716;2022-12-10T06:47:02;76507.38;;;18.16;100.00
48555;BME280;34336;48.270;16.716;2022-12-10T06:49:29;76503.53;;;18.16;100.00
48555;BME280;34336;48.270;16.716;2022-12-10T06:51:55;76501.63;;;18.16;100.00
48555;BME280;34336;48.270;16.716;2022-12-10T06:54:22;76505.47;;;18.16;100.00
48555;BME280;34336;48.270;16.716;2022-12-10T06:56:48;76490.06;;;18.16;100.00
48555;BME280;34336;48.270;16.716;2022-12-10T06:59:15;76490.06;;;18.16;100.00
48555;BME280;34336;48.270;16.716;2022-12-10T07:01:41;76482.34;;;18.16;100.00
48555;BME280;34336;48.270;16.716;2022-12-10T07:04:09;76478.50;;;18.16;100.00
48555;BME280;34336;48.270;16.716;2022-12-10T07:06:36;76486.19;;;18.16;100.00
48555;BME280;34336;48.270;16.716;2022-12-10T07:09:02;76490.06;;;18.16;100.00
48555;BME280;34336;48.270;16.716;2022-12-10T07:11:29;76482.34;;;18.16;100.00
48555;BME280;34336;48.270;16.716;2022-12-10T07:13:57;76486.19;;;18.16;100.00
48555;BME280;34336;48.270;16.716;2022-12-10T07:16:25;76482.34;;;18.16;100.00
48555;BME280;34336;48.270;16.716;2022-12-10T07:18:53;76478.50;;;18.16;100.00
48555;BME280;34336;48.270;16.716;2022-12-10T07:21:24;76470.78;;;18.16;100.00
48555;BME280;34336;48.270;16.716;2022-12-10T07:23:52;76474.63;;;18.16;100.00
48555;BME280;34336;48.270;16.716;2022-12-10T07:26:20;76465.00;;;18.16;100.00
48555;BME280;34336;48.270;16.716;2022-12-10T07:28:47;76459.22;;;18.16;100.00
48555;BME280;34336;48.270;16.716;2022-12-10T07:31:19;76447.66;;;18.16;100.00
48555;BME280;34336;48.270;16.716;2022-12-10T07:33:46;76449.59;;;18.16;100.00
48555;BME280;34336;48.270;16.716;2022-12-10T07:36:13;76447.66;;;18.16;100.00
48555;BME280;34336;48.270;16.716;2022-12-10T07:38:40;76449.59;;;18.16;100.00
48555;BME280;34336;48.270;16.716;2022-12-10T07:41:08;76449.59;;;18.16;100.00
48555;BME280;34336;48.270;16.716;2022-12-10T07:43:36;76430.31;;;18.16;100.00
48555;BME280;34336;48.270;16.716;2022-12-10T07:46:06;76424.53;;;18.16;100.00
48555;BME280;34336;48.270;16.716;2022-12-10T07:48:34;76416.81;;;18.16;100.00
48555;BME280;34336;48.270;16.716;2022-12-10T07:51:01;76420.69;;;18.16;100.00
48555;BME280;34336;48.270;16.716;2022-12-10T07:53:27;76416.81;;;18.16;100.00
48555;BME280;34336;48.270;16.716;2022-12-10T07:55:54;76412.97;;;18.16;100.00
48555;BME280;34336;48.270;16.716;2022-12-10T07:58:20;76412.97;;;18.16;100.00
48555;BME280;34336;48.270;16.716;2022-12-10T08:00:47;76416.81;;;18.16;100.00
48555;BME280;34336;48.270;16.716;2022-12-10T08:03:14;76424.53;;;18.16;100.00
48555;BME280;34336;48.270;16.716;2022-12-10T08:05:41;76420.69;;;18.16;100.00
48555;BME280;34336;48.270;16.716;2022-12-10T08:08:15;76426.47;;;18.16;100.00
48555;BME280;34336;48.270;16.716;2022-12-10T08:10:44;76432.25;;;18.16;100.00
48555;BME280;34336;48.270;16.716;2022-12-10T08:13:11;76424.53;;;18.16;100.00
48555;BME280;34336;48.270;16.716;2022-12-10T08:15:45;76412.97;;;18.16;100.00
48555;BME280;34336;48.270;16.716;2022-12-10T08:18:35;76430.31;;;18.16;100.00
48555;BME280;34336;48.270;16.716;2022-12-10T08:21:40;76438.03;;;18.16;100.00
48555;BME280;34336;48.270;16.716;2022-12-10T08:24:22;76436.09;;;18.16;100.00
48555;BME280;34336;48.270;16.716;2022-12-10T08:26:51;76434.16;;;18.16;100.00
48555;BME280;34336;48.270;16.716;2022-12-10T08:29:21;76416.81;;;18.16;100.00
48555;BME280;34336;48.270;16.716;2022-12-10T08:31:48;76420.69;;;18.16;100.00
48555;BME280;34336;48.270;16.716;2022-12-10T08:34:32;76412.97;;;18.16;100.00
48555;BME280;34336;48.270;16.716;2022-12-10T08:37:40;76424.53;;;18.16;100.00
48555;BME280;34336;48.270;16.716;2022-12-10T08:40:45;76420.69;;;18.16;100.00
48555;BME280;34336;48.270;16.716;2022-12-10T08:43:17;76416.81;;;18.16;100.00
48555;BME280;34336;48.270;16.716;2022-12-10T08:45:57;76424.53;;;18.16;100.00
48555;BME280;34336;48.270;16.716;2022-12-10T08:48:29;76432.25;;;18.16;100.00
48555;BME280;34336;48.270;16.716;2022-12-10T08:51:13;76424.53;;;18.16;100.00
48555;BME280;34336;48.270;16.716;2022-12-10T08:53:41;76426.47;;;18.16;100.00
48555;BME280;34336;48.270;16.716;2022-12-10T08:56:13;76430.31;;;18.16;100.00
48555;BME280;34336;48.270;16.716;2022-12-10T08:59:02;76438.03;;;18.16;100.00
48555;BME280;34336;48.270;16.716;2022-12-10T09:01:31;76432.25;;;18.16;100.00
48555;BME280;34336;48.270;16.716;2022-12-10T09:03:58;76445.72;;;18.16;100.00
48555;BME280;34336;48.270;16.716;2022-12-10T09:06:31;76438.03;;;18.16;100.00
48555;BME280;34336;48.270;16.716;2022-12-10T09:09:03;76455.38;;;18.16;100.00
48555;BME280;34336;48.270;16.716;2022-12-10T09:11:47;76443.81;;;18.16;100.00
48555;BME280;34336;48.270;16.716;2022-12-10T09:14:13;76436.09;;;18.16;100.00
48555;BME280;34336;48.270;16.716;2022-12-10T09:16:40;76424.53;;;18.16;100.00
48555;BME280;34336;48.270;16.716;2022-12-10T09:19:08;76426.47;;;18.16;100.00
48555;BME280;34336;48.270;16.716;2022-12-10T09:21:38;76409.13;;;18.16;100.00
48555;BME280;34336;48.270;16.716;2022-12-10T09:24:05;76409.13;;;18.16;100.00
48555;BME280;34336;48.270;16.716;2022-12-10T09:26:32;76393.69;;;18.16;100.00
48555;BME280;34336;48.270;16.716;2022-12-10T09:28:58;76393.69;;;18.16;100.00
48555;BME280;34336;48.270;16.716;2022-12-10T09:31:26;76395.63;;;18.16;100.00
48555;BME280;34336;48.270;16.716;2022-12-10T09:33:53;76387.91;;;18.16;100.00
48555;BME280;34336;48.270;16.716;2022-12-10T09:36:20;76387.91;;;18.16;100.00
48555;BME280;34336;48.270;16.716;2022-12-10T09:38:47;76378.28;;;18.16;100.00
48555;BME280;34336;48.270;16.716;2022-12-10T09:46:56;76384.06;;;18.16;100.00
48555;BME280;34336;48.270;16.716;2022-12-10T09:52:14;76364.81;;;18.16;99.89
48555;BME280;34336;48.270;16.716;2022-12-10T09:57:10;76351.31;;;18.16;100.00
48555;BME280;34336;48.270;16.716;2022-12-10T09:59:44;76357.09;;;18.16;98.47
48555;BME280;34336;48.270;16.716;2022-12-10T10:02:19;76366.72;;;18.16;98.81
48555;BME280;34336;48.270;16.716;2022-12-10T10:04:48;76366.72;;;18.16;100.00
48555;BME280;34336;48.270;16.716;2022-12-10T10:07:22;76380.22;;;18.16;98.86
48555;BME280;34336;48.270;16.716;2022-12-10T10:09:50;76389.84;;;18.16;100.00
48555;BME280;34336;48.270;16.716;2022-12-10T10:12:17;76386.00;;;18.16;100.00
48555;BME280;34336;48.270;16.716;2022-12-10T10:14:44;76366.72;;;18.16;100.00
48555;BME280;34336;48.270;16.716;2022-12-10T10:17:14;76359.00;;;18.16;100.00
48555;BME280;34336;48.270;16.716;2022-12-10T10:19:42;76355.16;;;18.16;100.00
48555;BME280;34336;48.270;16.716;2022-12-10T10:22:10;76372.50;;;18.16;99.80
48555;BME280;34336;48.270;16.716;2022-12-10T10:24:39;76366.72;;;18.16;98.23
48555;BME280;34336;48.270;16.716;2022-12-10T10:27:16;76357.09;;;18.16;98.98
48555;BME280;34336;48.270;16.716;2022-12-10T10:29:44;76359.00;;;18.16;99.72
48555;BME280;34336;48.270;16.716;2022-12-10T10:34:40;76343.59;;;18.16;99.61
48555;BME280;34336;48.270;16.716;2022-12-10T10:37:11;76341.69;;;18.16;99.58
48555;BME280;34336;48.270;16.716;2022-12-10T10:39:41;76341.69;;;18.16;99.74
48555;BME280;34336;48.270;16.716;2022-12-10T10:42:26;76339.75;;;18.16;98.88
48555;BME280;34336;48.270;16.716;2022-12-10T10:44:54;76332.03;;;18.16;97.27
48555;BME280;34336;48.270;16.716;2022-12-10T10:47:24;76328.19;;;18.16;97.50
48555;BME280;34336;48.270;16.716;2022-12-10T10:49:59;76320.47;;;18.16;98.63
48555;BME280;34336;48.270;16.716;2022-12-10T10:52:29;76322.41;;;18.16;98.44
48555;BME280;34336;48.270;16.716;2022-12-10T10:54:56;76316.63;;;18.16;98.06
48555;BME280;34336;48.270;16.716;2022-12-10T10:59:59;76301.22;;;18.16;98.15
48555;BME280;34336;48.270;16.716;2022-12-10T11:02:40;76289.66;;;18.16;97.99
48555;BME280;34336;48.270;16.716;2022-12-10T11:05:29;76301.22;;;18.16;95.64
48555;BME280;34336;48.270;16.716;2022-12-10T11:08:02;76301.22;;;18.16;96.55
48555;BME280;34336;48.270;16.716;2022-12-10T11:10:29;76293.50;;;18.16;96.63
48555;BME280;34336;48.270;16.716;2022-12-10T11:13:04;76297.34;;;18.16;95.73
48555;BME280;34336;48.270;16.716;2022-12-10T11:15:35;76287.72;;;18.16;95.59
48555;BME280;34336;48.270;16.716;2022-12-10T11:18:03;76289.66;;;18.16;97.12
48555;BME280;34336;48.270;16.716;2022-12-10T11:20:55;76264.59;;;18.16;96.55
48555;BME280;34336;48.270;16.716;2022-12-10T11:23:22;76281.94;;;18.16;96.37
48555;BME280;34336;48.270;16.716;2022-12-10T11:29:27;76293.50;;;18.16;96.58
48555;BME280;34336;48.270;16.716;2022-12-10T11:36:24;76274.22;;;18.16;94.80
48555;BME280;34336;48.270;16.716;2022-12-10T11:41:42;76258.81;;;18.16;94.07
48555;BME280;34336;48.270;16.716;2022-12-10T12:08:02;76295.44;;;18.16;96.52
48555;BME280;34336;48.270;16.716;2022-12-10T12:13:18;76289.66;;;18.16;96.61
48555;BME280;34336;48.270;16.716;2022-12-10T12:21:03;76280.00;;;18.16;99.26
48555;BME280;34336;48.270;16.716;2022-12-10T12:29:25;76274.22;;;18.16;96.51
48555;BME280;34336;48.270;16.716;2022-12-10T12:32:09;76272.31;;;18.16;98.03
48555;BME280;34336;48.270;16.716;2022-12-10T12:35:06;76266.53;;;18.16;98.26
48555;BME280;34336;48.270;16.716;2022-12-10T12:45:14;76270.38;;;18.16;99.04
48555;BME280;34336;48.270;16.716;2022-12-10T12:48:01;76262.66;;;18.16;99.53
48555;BME280;34336;48.270;16.716;2022-12-10T12:51:26;76260.75;;;18.16;98.64
48555;BME280;34336;48.270;16.716;2022-12-10T12:54:48;76266.53;;;18.16;98.45
48555;BME280;34336;48.270;16.716;2022-12-10T12:57:41;76268.44;;;18.16;97.75
48555;BME280;34336;48.270;16.716;2022-12-10T13:00:37;76262.66;;;18.16;97.58
48555;BME280;34336;48.270;16.716;2022-12-10T13:03:45;76266.53;;;18.16;97.86
48555;BME280;34336;48.270;16.716;2022-12-10T13:07:36;76266.53;;;18.16;97.07
48555;BME280;34336;48.270;16.716;2022-12-10T13:13:07;76270.38;;;18.16;97.46
48555;BME280;34336;48.270;16.716;2022-12-10T13:15:42;76258.81;;;18.16;95.89
48555;BME280;34336;48.270;16.716;2022-12-10T13:28:22;76278.09;;;18.16;97.71
48555;BME280;34336;48.270;16.716;2022-12-10T13:31:13;76285.78;;;18.16;97.79
48555;BME280;34336;48.270;16.716;2022-12-10T13:36:12;76280.00;;;18.16;97.70
48555;BME280;34336;48.270;16.716;2022-12-10T13:38:40;76289.66;;;18.16;97.45
48555;BME280;34336;48.270;16.716;2022-12-10T13:41:07;76301.22;;;18.16;97.58
48555;BME280;34336;48.270;16.716;2022-12-10T13:43:57;76293.50;;;18.16;96.25
48555;BME280;34336;48.270;16.716;2022-12-10T13:49:22;76297.34;;;18.16;96.38
48555;BME280;34336;48.270;16.716;2022-12-10T14:06:25;76291.56;;;18.16;97.26
48555;BME280;34336;48.270;16.716;2022-12-10T14:09:02;76289.66;;;18.16;96.59
48555;BME280;34336;48.270;16.716;2022-12-10T14:11:38;76295.44;;;18.16;96.91
48555;BME280;34336;48.270;16.716;2022-12-10T14:14:09;76287.72;;;18.16;95.96
48555;BME280;34336;48.270;16.716;2022-12-10T14:16:37;76281.94;;;18.16;94.49
48555;BME280;34336;48.270;16.716;2022-12-10T14:19:06;76285.78;;;18.16;95.44
48555;BME280;34336;48.270;16.716;2022-12-10T14:21:37;76285.78;;;18.16;95.70
48555;BME280;34336;48.270;16.716;2022-12-10T14:24:05;76293.50;;;18.16;97.08
48555;BME280;34336;48.270;16.716;2022-12-10T14:26:33;76303.13;;;18.16;96.70
48555;BME280;34336;48.270;16.716;2022-12-10T14:29:22;76301.22;;;18.16;96.86
48555;BME280;34336;48.270;16.716;2022-12-10T14:31:54;76305.06;;;18.16;96.92
48555;BME280;34336;48.270;16.716;2022-12-10T14:34:23;76305.06;;;18.16;95.93
48555;BME280;34336;48.270;16.716;2022-12-10T14:36:52;76312.78;;;18.16;96.50
48555;BME280;34336;48.270;16.716;2022-12-10T14:39:26;76318.56;;;18.16;96.66
48555;BME280;34336;48.270;16.716;2022-12-10T14:41:55;76316.63;;;18.16;96.81
48555;BME280;34336;48.270;16.716;2022-12-10T14:44:23;76314.69;;;18.16;97.73
48555;BME280;34336;48.270;16.716;2022-12-10T14:46:50;76301.22;;;18.16;97.20
48555;BME280;34336;48.270;16.716;2022-12-10T14:49:22;76307.00;;;18.16;98.15
48555;BME280;34336;48.270;16.716;2022-12-10T14:51:49;76305.06;;;18.16;99.18
48555;BME280;34336;48.270;16.716;2022-12-10T14:54:29;76316.63;;;18.16;97.64
48555;BME280;34336;48.270;16.716;2022-12-10T14:56:58;76314.69;;;18.16;96.80
48555;BME280;34336;48.270;16.716;2022-12-10T14:59:26;76303.13;;;18.16;96.59
48555;BME280;34336;48.270;16.716;2022-12-10T15:01:57;76305.06;;;18.16;95.72